Time;durP1;ratioP1;P1;durP2;ratioP2;P2;SDS_P1;SDS_P2;PMS_P1;PMS_P2;Temp;Humidity;BMP_temperature;BMP_pressure;BME280_temperature;BME280_humidity;BME280_pressure;Samples;Min_cycle;Max_cycle;Signal;HPM_P1;HPM_P2
2024/02/02 00:01:54;;;;;;;;;;;;;;;20.20;36.31;97013.19;10489636;28;2076;-61
2024/02/02 00:06:55;;;;;;;;;;;;;;;20.17;35.96;97009.16;10503934;28;2114;-62
2024/02/02 00:11:55;;;;;;;;;;;;;;;20.15;36.17;97005.19;10503162;28;2041;-61
2024/02/02 00:16:55;;;;;;;;;;;;;;;20.15;36.31;97010.44;10508449;28;1963;-61
2024/02/02 00:21:55;;;;;;;;;;;;;;;20.12;36.08;97011.72;10488464;28;2048;-61
2024/02/02 00:26:56;;;;;;;;;;;;;;;20.12;36.12;97011.72;10483752;28;2448;-61
2024/02/02 00:31:56;;;;;;;;;;;;;;;20.09;36.12;97011.41;10504597;28;2230;-61
2024/02/02 00:36:56;;;;;;;;;;;;;;;20.07;36.33;97009.00;10503011;28;2389;-62
2024/02/02 00:41:57;;;;;;;;;;;;;;;20.05;36.05;97010.31;10500616;28;2028;-62
2024/02/02 00:46:57;;;;;;;;;;;;;;;20.05;36.07;97015.56;10500221;28;2091;-62
2024/02/02 00:51:57;;;;;;;;;;;;;;;20.04;36.07;97008.69;10501607;28;2153;-61
2024/02/02 00:56:57;;;;;;;;;;;;;;;20.01;36.33;97025.75;10501551;28;2063;-62
2024/02/02 01:01:58;;;;;;;;;;;;;;;20.01;36.10;97027.59;10501897;28;2032;-62
2024/02/02 01:06:58;;;;;;;;;;;;;;;19.99;36.19;97019.16;10503437;28;2047;-61
2024/02/02 01:11:58;;;;;;;;;;;;;;;19.97;36.12;97016.75;10511400;28;2224;-62
2024/02/02 01:16:58;;;;;;;;;;;;;;;19.97;36.04;97029.13;10508697;28;2103;-63
2024/02/02 01:21:59;;;;;;;;;;;;;;;19.95;36.28;97023.28;10512287;28;2048;-62
2024/02/02 01:26:59;;;;;;;;;;;;;;;19.94;36.17;97030.41;10506315;28;2248;-63
2024/02/02 01:32:02;;;;;;;;;;;;;;;19.93;36.18;97017.44;10508163;28;2191;-62
2024/02/02 01:37:02;;;;;;;;;;;;;;;19.91;36.20;97017.69;10507389;28;2669;-62
2024/02/02 01:42:02;;;;;;;;;;;;;;;19.88;36.15;97012.94;10507587;28;2594;-61
2024/02/02 01:47:02;;;;;;;;;;;;;;;19.89;36.05;97013.69;10504948;28;2306;-63
2024/02/02 01:52:03;;;;;;;;;;;;;;;19.87;35.95;97010.50;10508489;28;1983;-62
2024/02/02 01:57:04;;;;;;;;;;;;;;;19.86;36.08;97020.25;10473320;28;2095;-62
2024/02/02 02:02:06;;;;;;;;;;;;;;;19.84;35.94;97019.69;10508621;28;2232;-62
2024/02/02 02:07:06;;;;;;;;;;;;;;;19.83;36.08;97017.28;10507486;28;2174;-62
2024/02/02 02:12:07;;;;;;;;;;;;;;;19.82;36.02;97006.00;10508243;28;2178;-63
2024/02/02 02:17:07;;;;;;;;;;;;;;;19.81;35.96;97000.94;10510004;28;2067;-63
2024/02/02 02:22:07;;;;;;;;;;;;;;;19.79;35.89;96989.84;10506772;28;2227;-63
2024/02/02 02:27:08;;;;;;;;;;;;;;;19.78;35.76;96985.66;10508085;28;2153;-63
2024/02/02 02:32:08;;;;;;;;;;;;;;;19.77;35.82;96979.59;10521373;27;2296;-63
2024/02/02 02:37:09;;;;;;;;;;;;;;;19.75;35.88;96984.28;10505223;28;2350;-63
2024/02/02 02:42:09;;;;;;;;;;;;;;;19.74;35.91;96977.41;10506657;28;2047;-63
2024/02/02 02:47:11;;;;;;;;;;;;;;;19.73;35.81;96975.03;10509019;28;2289;-61
2024/02/02 02:52:11;;;;;;;;;;;;;;;19.73;36.00;96972.41;10505598;28;1976;-63
2024/02/02 02:57:11;;;;;;;;;;;;;;;19.72;35.77;96976.09;10518609;27;2125;-63
2024/02/02 03:02:11;;;;;;;;;;;;;;;19.72;35.77;96986.59;10504824;28;2138;-63
2024/02/02 03:07:12;;;;;;;;;;;;;;;19.69;35.91;96982.59;10486337;28;2291;-63
2024/02/02 03:12:12;;;;;;;;;;;;;;;19.68;35.74;96974.97;10505972;28;2079;-63
2024/02/02 03:17:12;;;;;;;;;;;;;;;19.67;35.73;96970.72;10506816;28;2342;-63
2024/02/02 03:22:13;;;;;;;;;;;;;;;19.67;35.91;96962.84;10504145;28;2178;-63
2024/02/02 03:27:13;;;;;;;;;;;;;;;19.65;35.77;96952.56;10520475;27;1999;-62
2024/02/02 03:32:13;;;;;;;;;;;;;;;19.64;35.83;96955.44;10504137;28;2300;-63
2024/02/02 03:37:15;;;;;;;;;;;;;;;19.63;35.69;96962.53;10503103;28;2130;-63
2024/02/02 03:42:15;;;;;;;;;;;;;;;19.62;35.73;96979.31;10505097;28;1998;-62
2024/02/02 03:47:15;;;;;;;;;;;;;;;19.61;35.84;96975.13;10504180;28;2039;-62
2024/02/02 03:52:16;;;;;;;;;;;;;;;19.61;35.73;96976.94;10503768;28;2043;-63
2024/02/02 03:57:16;;;;;;;;;;;;;;;19.59;35.62;96977.19;10503406;28;2118;-63
2024/02/02 04:02:16;;;;;;;;;;;;;;;19.56;35.74;96969.75;10504816;28;2254;-63
2024/02/02 04:07:17;;;;;;;;;;;;;;;19.58;35.72;96982.69;10502839;28;2286;-62
2024/02/02 04:12:17;;;;;;;;;;;;;;;19.55;35.73;96972.63;10487006;28;2274;-63
2024/02/02 04:17:18;;;;;;;;;;;;;;;19.55;35.73;96980.53;10507876;28;2312;-63
2024/02/02 04:22:18;;;;;;;;;;;;;;;19.53;35.65;96979.97;10502732;28;2209;-62
2024/02/02 04:27:18;;;;;;;;;;;;;;;19.52;35.75;96994.13;10501324;28;2162;-62
2024/02/02 04:32:19;;;;;;;;;;;;;;;19.51;35.54;96995.97;10517444;28;2101;-62
2024/02/02 04:37:19;;;;;;;;;;;;;;;19.51;35.70;97003.06;10502906;28;2362;-62
2024/02/02 04:42:19;;;;;;;;;;;;;;;19.49;35.58;97006.72;10518221;28;1991;-62
2024/02/02 04:47:19;;;;;;;;;;;;;;;19.48;35.42;97010.41;10517003;28;2039;-62
2024/02/02 04:52:20;;;;;;;;;;;;;;;19.47;35.65;97003.53;10499456;28;2095;-61
2024/02/02 04:57:20;;;;;;;;;;;;;;;19.46;35.71;97011.66;10515858;28;2114;-62
2024/02/02 05:02:22;;;;;;;;;;;;;;;19.45;35.41;97016.09;10517495;28;2314;-61
2024/02/02 05:07:23;;;;;;;;;;;;;;;19.44;35.45;97021.63;10497776;28;2124;-62
2024/02/02 05:12:23;;;;;;;;;;;;;;;19.43;35.63;97039.22;10515192;28;2424;-62
2024/02/02 05:17:23;;;;;;;;;;;;;;;19.43;35.58;97038.44;10515784;28;2082;-62
2024/02/02 05:22:24;;;;;;;;;;;;;;;19.42;35.46;97037.63;10522309;28;2009;-62
2024/02/02 05:27:24;;;;;;;;;;;;;;;19.42;35.51;97055.22;10513662;28;2379;-62
2024/02/02 05:32:24;;;;;;;;;;;;;;;19.40;35.43;97050.22;10517371;28;2043;-62
2024/02/02 05:37:24;;;;;;;;;;;;;;;19.40;35.48;97059.94;10515878;27;2898;-62
2024/02/02 05:42:26;;;;;;;;;;;;;;;19.38;35.33;97068.06;10496097;28;2146;-62
2024/02/02 05:47:26;;;;;;;;;;;;;;;19.38;35.34;97067.25;10516657;28;2098;-62
2024/02/02 05:52:26;;;;;;;;;;;;;;;19.40;35.72;97062.56;10508460;28;2106;-62
2024/02/02 05:57:27;;;;;;;;;;;;;;;19.45;35.58;97047.66;10507609;28;2131;-62
2024/02/02 06:02:27;;;;;;;;;;;;;;;19.52;35.53;97063.31;10503303;28;2023;-62
2024/02/02 06:07:27;;;;;;;;;;;;;;;19.62;35.35;97054.81;10503838;28;2055;-62
2024/02/02 06:12:28;;;;;;;;;;;;;;;19.69;35.29;97060.72;10506409;28;2035;-62
2024/02/02 06:17:28;;;;;;;;;;;;;;;19.75;34.90;97063.22;10503870;28;2063;-62
2024/02/02 06:22:28;;;;;;;;;;;;;;;19.80;34.66;97060.69;10505788;28;2250;-62
2024/02/02 06:27:31;;;;;;;;;;;;;;;19.87;34.37;97050.78;10504876;28;2242;-62
2024/02/02 06:32:31;;;;;;;;;;;;;;;19.91;34.16;97062.44;10505381;28;2083;-62
2024/02/02 06:37:31;;;;;;;;;;;;;;;19.98;34.51;97059.66;10503733;28;2206;-63
2024/02/02 06:42:32;;;;;;;;;;;;;;;20.01;34.12;97067.09;10506641;28;1992;-62
2024/02/02 06:47:32;;;;;;;;;;;;;;;20.03;34.10;97068.44;10507765;28;2150;-62
2024/02/02 06:52:32;;;;;;;;;;;;;;;20.08;34.05;97059.81;10518284;27;2038;-62
2024/02/02 06:57:33;;;;;;;;;;;;;;;20.12;33.76;97066.19;10502432;28;1945;-63
2024/02/02 07:02:33;;;;;;;;;;;;;;;20.18;34.08;97070.50;10493847;28;2236;-62
2024/02/02 07:07:33;;;;;;;;;;;;;;;20.21;33.77;97067.44;10483545;28;2328;-60
2024/02/02 07:13:09;;;;;;;;;;;;;;;20.30;33.64;97081.78;10498161;28;2231;-62
2024/02/02 07:18:17;;;;;;;;;;;;;;;20.35;33.35;97091.59;10469491;28;2300;-62
2024/02/02 07:23:18;;;;;;;;;;;;;;;20.36;33.25;97080.81;10480901;28;2042;-60
2024/02/02 07:28:30;;;;;;;;;;;;;;;20.43;33.68;97105.19;10511429;27;2087;-60
2024/02/02 07:33:43;;;;;;;;;;;;;;;20.46;33.72;97117.88;10509011;28;2144;-60
2024/02/02 07:38:46;;;;;;;;;;;;;;;20.51;33.28;97119.78;10497404;28;2350;-60
2024/02/02 07:43:47;;;;;;;;;;;;;;;20.52;34.27;97135.38;10498518;28;2647;-61
2024/02/02 07:48:47;;;;;;;;;;;;;;;20.53;33.66;97130.88;10499295;28;2080;-60
2024/02/02 07:53:48;;;;;;;;;;;;;;;20.53;33.42;97117.69;10495362;28;2130;-60
2024/02/02 07:58:48;;;;;;;;;;;;;;;20.57;33.86;97113.53;10492919;28;1954;-60
2024/02/02 08:03:48;;;;;;;;;;;;;;;20.72;34.95;97117.22;10495755;28;2085;-62
2024/02/02 08:08:49;;;;;;;;;;;;;;;20.80;36.38;97108.09;10497384;28;2389;-59
2024/02/02 08:13:49;;;;;;;;;;;;;;;20.91;37.32;97101.94;10494949;28;2110;-60
2024/02/02 08:18:50;;;;;;;;;;;;;;;20.92;38.01;97085.88;10499748;28;2004;-59
2024/02/02 08:23:50;;;;;;;;;;;;;;;20.84;36.26;97088.13;10495790;28;2033;-59
2024/02/02 08:28:50;;;;;;;;;;;;;;;20.84;34.72;97078.38;10496776;28;2190;-59
2024/02/02 08:33:53;;;;;;;;;;;;;;;20.83;34.51;97078.63;10496700;28;2699;-59
2024/02/02 08:38:53;;;;;;;;;;;;;;;20.92;34.37;97077.97;10496098;28;2067;-59
2024/02/02 08:43:54;;;;;;;;;;;;;;;20.93;34.13;97060.31;10480825;28;2060;-59
2024/02/02 08:48:55;;;;;;;;;;;;;;;20.93;34.72;97071.66;10497958;28;2337;-61
2024/02/02 08:54:14;;;;;;;;;;;;;;;21.06;33.43;97076.59;10496438;28;2071;-60
2024/02/02 08:59:35;;;;;;;;;;;;;;;21.05;34.12;97077.66;10499016;28;2036;-60
2024/02/02 09:04:45;;;;;;;;;;;;;;;21.10;34.13;97100.66;10494702;28;2319;-59
2024/02/02 09:09:45;;;;;;;;;;;;;;;21.13;34.23;97100.16;10495344;28;2258;-60
2024/02/02 09:14:45;;;;;;;;;;;;;;;21.14;33.97;97085.13;10503646;28;2099;-60
2024/02/02 09:19:50;;;;;;;;;;;;;;;21.12;33.90;97082.75;10497628;28;2216;-59
2024/02/02 09:24:53;;;;;;;;;;;;;;;21.16;33.77;97090.97;10496422;28;2052;-59
2024/02/02 09:29:53;;;;;;;;;;;;;;;21.17;33.54;97082.00;10502667;28;2281;-59
2024/02/02 09:34:54;;;;;;;;;;;;;;;21.25;34.17;97081.56;10502138;28;2063;-60
2024/02/02 09:39:56;;;;;;;;;;;;;;;21.31;33.58;97084.00;10501613;28;1972;-59
2024/02/02 09:44:58;;;;;;;;;;;;;;;21.43;35.76;97087.31;10503900;28;2022;-59
2024/02/02 09:50:17;;;;;;;;;;;;;;;21.46;36.23;97092.13;10503917;28;2122;-59
2024/02/02 09:55:31;;;;;;;;;;;;;;;21.51;36.53;97086.09;10501344;28;2057;-60
2024/02/02 10:00:42;;;;;;;;;;;;;;;21.47;36.70;97093.72;10499773;28;1929;-59
2024/02/02 10:05:48;;;;;;;;;;;;;;;21.35;37.26;97079.06;10503969;28;2095;-60
2024/02/02 10:10:51;;;;;;;;;;;;;;;21.35;36.88;97079.06;10503123;28;2219;-60
2024/02/02 10:16:10;;;;;;;;;;;;;;;21.22;37.31;97082.88;10517912;28;2043;-59
2024/02/02 10:21:13;;;;;;;;;;;;;;;21.26;35.68;97104.25;10516874;27;2021;-59
2024/02/02 10:26:32;;;;;;;;;;;;;;;21.10;34.86;97102.47;10500232;28;2055;-59
2024/02/02 10:31:35;;;;;;;;;;;;;;;21.11;35.21;97104.06;10502878;28;2036;-59
2024/02/02 10:37:14;;;;;;;;;;;;;;;21.14;34.91;97104.41;10499193;28;2083;-59
2024/02/02 10:42:19;;;;;;;;;;;;;;;21.13;34.84;97091.44;10483596;28;2111;-59
2024/02/02 10:47:46;;;;;;;;;;;;;;;21.11;35.60;97083.78;10487223;28;1975;-61
2024/02/02 10:52:49;;;;;;;;;;;;;;;21.33;36.51;97078.50;10485804;28;2142;-60
2024/02/02 10:58:01;;;;;;;;;;;;;;;21.42;36.87;97071.75;10501305;28;2278;-62
2024/02/02 11:03:12;;;;;;;;;;;;;;;21.30;36.81;97079.81;10496116;28;2246;-63
2024/02/02 11:08:18;;;;;;;;;;;;;;;21.24;35.93;97074.72;10496716;28;2226;-63
2024/02/02 11:13:37;;;;;;;;;;;;;;;21.23;35.18;97068.63;10499936;28;2012;-63
2024/02/02 11:18:37;;;;;;;;;;;;;;;21.29;34.48;97049.19;10502166;28;2200;-62
2024/02/02 11:23:38;;;;;;;;;;;;;;;21.24;34.47;97053.59;10510783;28;2155;-62
2024/02/02 11:28:41;;;;;;;;;;;;;;;21.17;34.94;97052.97;10498097;28;2201;-62
2024/02/02 11:34:05;;;;;;;;;;;;;;;21.32;34.08;97059.25;10492511;28;2123;-62
2024/02/02 11:39:21;;;;;;;;;;;;;;;21.29;34.46;97037.84;10506361;27;2125;-62
2024/02/02 11:44:21;;;;;;;;;;;;;;;21.29;34.77;97011.47;10498406;28;2200;-62
2024/02/02 11:49:26;;;;;;;;;;;;;;;21.35;34.08;96992.03;10496763;28;2206;-62
2024/02/02 11:54:30;;;;;;;;;;;;;;;21.30;34.22;97007.78;10479811;28;2054;-62
2024/02/02 11:59:34;;;;;;;;;;;;;;;21.33;34.31;97002.81;10495427;28;2064;-61
2024/02/02 12:04:58;;;;;;;;;;;;;;;21.52;36.07;96990.88;10509908;28;2062;-62
2024/02/02 12:10:02;;;;;;;;;;;;;;;21.61;36.10;96999.13;10478219;28;2023;-62
2024/02/02 12:15:03;;;;;;;;;;;;;;;21.61;37.70;97001.78;10498077;28;2171;-63
2024/02/02 12:20:07;;;;;;;;;;;;;;;21.39;35.53;96991.25;10485747;28;2035;-62
2024/02/02 12:25:09;;;;;;;;;;;;;;;21.38;34.97;97000.22;10480104;28;2176;-62
2024/02/02 12:30:09;;;;;;;;;;;;;;;21.34;34.75;96993.88;10499592;28;2091;-63
2024/02/02 12:35:10;;;;;;;;;;;;;;;21.35;34.50;96987.53;10496119;28;2110;-63
2024/02/02 12:40:10;;;;;;;;;;;;;;;21.32;34.86;96985.41;10493165;28;2580;-62
2024/02/02 12:45:12;;;;;;;;;;;;;;;21.37;34.23;96980.16;10496182;28;2192;-64
2024/02/02 12:50:17;;;;;;;;;;;;;;;21.29;34.70;96964.78;10478371;28;2071;-64
2024/02/02 12:55:18;;;;;;;;;;;;;;;21.38;34.22;96960.66;10494567;28;2158;-63
2024/02/02 13:00:18;;;;;;;;;;;;;;;21.33;34.00;96955.31;10498513;28;2126;-64
2024/02/02 13:05:19;;;;;;;;;;;;;;;21.39;34.13;96953.56;10505719;28;2252;-63
2024/02/02 13:10:34;;;;;;;;;;;;;;;21.29;34.46;96945.56;10505348;28;2064;-62
2024/02/02 13:15:34;;;;;;;;;;;;;;;21.33;34.23;96928.19;10505810;28;2361;-62
2024/02/02 13:20:35;;;;;;;;;;;;;;;21.39;34.91;96927.19;10506660;28;2527;-64
2024/02/02 13:25:39;;;;;;;;;;;;;;;21.21;34.88;96924.88;10507413;28;2085;-64
2024/02/02 13:30:39;;;;;;;;;;;;;;;21.28;34.58;96907.81;10507457;28;2241;-62
2024/02/02 13:35:46;;;;;;;;;;;;;;;21.42;36.24;96900.28;10504327;28;2009;-62
2024/02/02 13:40:47;;;;;;;;;;;;;;;21.30;36.44;96895.19;10503206;28;1996;-63
2024/02/02 13:45:48;;;;;;;;;;;;;;;21.31;36.46;96899.41;10484591;28;2114;-64
2024/02/02 13:50:59;;;;;;;;;;;;;;;21.21;35.70;96895.88;10504601;28;2009;-64
2024/02/02 13:56:02;;;;;;;;;;;;;;;21.10;35.49;96902.91;10513986;27;2270;-63
2024/02/02 14:01:13;;;;;;;;;;;;;;;21.05;35.48;96895.75;10469508;28;1951;-64
2024/02/02 14:06:14;;;;;;;;;;;;;;;21.04;35.48;96886.22;10504002;28;2668;-64
2024/02/02 14:11:21;;;;;;;;;;;;;;;20.99;35.11;96878.25;10503123;28;2014;-65
2024/02/02 14:16:22;;;;;;;;;;;;;;;20.97;34.94;96893.53;10505441;28;1984;-64
2024/02/02 14:21:23;;;;;;;;;;;;;;;20.97;36.97;96888.25;10514772;28;2117;-64
2024/02/02 14:26:23;;;;;;;;;;;;;;;21.01;37.51;96884.06;10515217;27;2109;-64
2024/02/02 14:31:25;;;;;;;;;;;;;;;20.92;39.55;96879.47;10501288;28;2087;-64
2024/02/02 14:36:25;;;;;;;;;;;;;;;20.85;39.51;96879.69;10513193;28;2171;-64
2024/02/02 14:41:27;;;;;;;;;;;;;;;20.91;39.30;96870.00;10501540;28;2444;-64
2024/02/02 14:46:28;;;;;;;;;;;;;;;20.87;37.25;96877.63;10501190;28;2114;-64
2024/02/02 14:51:28;;;;;;;;;;;;;;;20.81;36.38;96867.25;10501086;28;2246;-65
2024/02/02 14:56:29;;;;;;;;;;;;;;;20.79;36.54;96867.50;10498776;28;2025;-65
2024/02/02 15:01:30;;;;;;;;;;;;;;;20.83;36.02;96865.97;10501075;28;2102;-64
2024/02/02 15:06:31;;;;;;;;;;;;;;;20.83;36.25;96865.19;10501434;28;2024;-61
2024/02/02 15:11:31;;;;;;;;;;;;;;;20.94;34.70;96851.84;10515712;28;2105;-64
2024/02/02 15:16:32;;;;;;;;;;;;;;;20.97;35.31;96853.19;10502917;28;2089;-64
2024/02/02 15:21:33;;;;;;;;;;;;;;;21.00;34.67;96834.22;10482901;28;2067;-64
2024/02/02 15:26:37;;;;;;;;;;;;;;;21.08;34.60;96839.88;10519632;28;2466;-64
2024/02/02 15:31:38;;;;;;;;;;;;;;;21.13;34.67;96841.75;10500262;28;2107;-65
2024/02/02 15:36:40;;;;;;;;;;;;;;;21.19;34.62;96832.84;10499286;28;2148;-64
2024/02/02 15:41:41;;;;;;;;;;;;;;;21.24;34.60;96829.47;10500611;28;2075;-65
2024/02/02 15:46:42;;;;;;;;;;;;;;;21.15;34.79;96829.13;10500959;28;2075;-65
2024/02/02 15:51:42;;;;;;;;;;;;;;;21.25;34.57;96831.03;10500138;28;2179;-64
2024/02/02 15:56:42;;;;;;;;;;;;;;;21.29;34.51;96834.78;10499566;28;2234;-64
2024/02/02 16:01:46;;;;;;;;;;;;;;;21.27;34.43;96834.25;10513433;27;2118;-64
2024/02/02 16:06:46;;;;;;;;;;;;;;;21.24;34.65;96834.72;10498462;28;2181;-62
2024/02/02 16:11:46;;;;;;;;;;;;;;;21.19;34.60;96824.94;10502717;28;2099;-64
2024/02/02 16:16:47;;;;;;;;;;;;;;;21.34;34.23;96830.34;10500729;28;2320;-64
2024/02/02 16:21:47;;;;;;;;;;;;;;;21.42;34.04;96831.69;10501686;28;2027;-62
2024/02/02 16:26:47;;;;;;;;;;;;;;;21.31;34.86;96841.38;10517715;28;2222;-64
2024/02/02 16:31:48;;;;;;;;;;;;;;;21.37;34.28;96839.59;10500945;28;2028;-64
2024/02/02 16:36:48;;;;;;;;;;;;;;;21.40;33.84;96833.81;10481525;28;2096;-64
2024/02/02 16:41:48;;;;;;;;;;;;;;;21.39;35.63;96834.88;10503649;28;2060;-64
2024/02/02 16:46:48;;;;;;;;;;;;;;;21.36;36.27;96845.91;10482035;28;2048;-64
2024/02/02 16:51:49;;;;;;;;;;;;;;;21.36;37.07;96838.78;10512144;28;2036;-64
2024/02/02 16:56:49;;;;;;;;;;;;;;;21.33;37.06;96844.56;10501805;28;2068;-64
2024/02/02 17:01:49;;;;;;;;;;;;;;;21.25;37.32;96846.84;10502445;28;1939;-65
2024/02/02 17:06:50;;;;;;;;;;;;;;;21.17;36.99;96848.13;10499120;28;2019;-64
2024/02/02 17:11:50;;;;;;;;;;;;;;;21.16;37.51;96853.66;10485313;28;2114;-63
2024/02/02 17:16:50;;;;;;;;;;;;;;;21.04;39.22;96857.22;10501038;28;2189;-64
2024/02/02 17:21:51;;;;;;;;;;;;;;;21.03;38.69;96846.94;10501081;28;2127;-64
2024/02/02 17:26:51;;;;;;;;;;;;;;;21.02;38.96;96858.53;10519628;28;2195;-64
2024/02/02 17:31:51;;;;;;;;;;;;;;;20.93;39.06;96836.28;10503297;28;2015;-64
2024/02/02 17:36:52;;;;;;;;;;;;;;;20.91;38.96;96852.34;10511640;28;2067;-64
2024/02/02 17:41:52;;;;;;;;;;;;;;;20.89;38.82;96851.00;10501865;28;2087;-63
2024/02/02 17:46:52;;;;;;;;;;;;;;;20.84;37.73;96848.31;10504241;28;2028;-63
2024/02/02 17:51:53;;;;;;;;;;;;;;;20.78;37.91;96846.66;10508026;28;2187;-64
2024/02/02 17:56:55;;;;;;;;;;;;;;;20.76;37.30;96838.22;10490078;28;2250;-64
2024/02/02 18:01:55;;;;;;;;;;;;;;;20.75;37.15;96829.50;10508788;28;2122;-64
2024/02/02 18:06:55;;;;;;;;;;;;;;;20.76;37.71;96844.28;10486369;28;2052;-63
2024/02/02 18:11:55;;;;;;;;;;;;;;;20.80;37.08;96844.56;10507075;28;2107;-64
2024/02/02 18:16:56;;;;;;;;;;;;;;;20.91;38.22;96843.63;10513921;28;2028;-64
2024/02/02 18:21:56;;;;;;;;;;;;;;;20.89;37.92;96836.00;10509009;28;2110;-63
2024/02/02 18:26:56;;;;;;;;;;;;;;;20.94;36.79;96830.75;10488876;28;2063;-63
2024/02/02 18:31:57;;;;;;;;;;;;;;;21.10;35.06;96820.38;10503165;28;2015;-63
2024/02/02 18:36:57;;;;;;;;;;;;;;;20.92;36.28;96822.28;10505730;28;2287;-63
2024/02/02 18:42:02;;;;;;;;;;;;;;;20.94;36.48;96820.22;10507508;28;2167;-63
2024/02/02 18:47:03;;;;;;;;;;;;;;;20.95;36.24;96813.91;10488221;28;2069;-64
2024/02/02 18:52:03;;;;;;;;;;;;;;;20.95;36.46;96810.47;10507221;28;2257;-65
2024/02/02 18:57:04;;;;;;;;;;;;;;;20.96;35.82;96806.78;10504356;28;2064;-66
2024/02/02 19:02:07;;;;;;;;;;;;;;;21.01;35.03;96798.91;10518145;28;2078;-64
2024/02/02 19:07:08;;;;;;;;;;;;;;;21.02;36.01;96800.53;10503614;28;2282;-64
2024/02/02 19:12:08;;;;;;;;;;;;;;;21.12;36.94;96795.38;10521115;28;2527;-65
2024/02/02 19:17:08;;;;;;;;;;;;;;;20.98;37.48;96789.66;10544094;27;1972;-65
2024/02/02 19:22:09;;;;;;;;;;;;;;;20.98;36.33;96789.66;10529331;28;2298;-68
2024/02/02 19:27:09;;;;;;;;;;;;;;;20.96;36.17;96785.69;10514402;28;2166;-68
2024/02/02 19:32:12;;;;;;;;;;;;;;;20.93;35.78;96780.94;10528279;28;1664;-67
2024/02/02 19:37:13;;;;;;;;;;;;;;;20.99;35.47;96770.19;10522891;28;1967;-68
2024/02/02 19:42:13;;;;;;;;;;;;;;;20.98;35.15;96775.69;10532335;28;1546;-63
2024/02/02 19:47:14;;;;;;;;;;;;;;;20.98;36.31;96784.41;10505965;28;1916;-64
2024/02/02 19:52:14;;;;;;;;;;;;;;;21.04;35.23;96772.88;10542342;28;1412;-64
2024/02/02 19:57:14;;;;;;;;;;;;;;;21.06;35.22;96783.19;10540791;28;1914;-65
2024/02/02 20:02:17;;;;;;;;;;;;;;;21.05;35.48;96779.75;10527469;28;1400;-65
2024/02/02 20:07:18;;;;;;;;;;;;;;;21.10;34.83;96770.28;10520366;28;1431;-66
2024/02/02 20:12:18;;;;;;;;;;;;;;;21.08;35.29;96772.38;10489799;28;2417;-65
2024/02/02 20:17:18;;;;;;;;;;;;;;;21.13;35.21;96772.41;10528316;28;1922;-65
2024/02/02 20:22:19;;;;;;;;;;;;;;;21.25;34.99;96765.09;10525926;28;1579;-66
2024/02/02 20:27:19;;;;;;;;;;;;;;;21.30;34.71;96770.44;10495209;28;1954;-64
2024/02/02 20:32:19;;;;;;;;;;;;;;;21.25;34.62;96773.03;10522283;28;1554;-64
2024/02/02 20:37:19;;;;;;;;;;;;;;;21.25;34.83;96770.38;10524193;28;1922;-64
2024/02/02 20:42:20;;;;;;;;;;;;;;;21.21;34.38;96759.56;10530653;28;1789;-65
2024/02/02 20:47:20;;;;;;;;;;;;;;;21.22;34.91;96769.06;10509513;28;1481;-64
2024/02/02 20:52:21;;;;;;;;;;;;;;;21.26;34.61;96750.91;10523012;28;1832;-64
2024/02/02 20:57:21;;;;;;;;;;;;;;;21.19;35.10;96753.75;10508974;28;2616;-67
2024/02/02 21:02:22;;;;;;;;;;;;;;;21.31;35.36;96749.06;10528892;28;1508;-65
2024/02/02 21:07:22;;;;;;;;;;;;;;;21.33;34.66;96749.63;10506917;28;1687;-66
2024/02/02 21:12:23;;;;;;;;;;;;;;;21.24;34.54;96750.34;10503072;28;1647;-65
2024/02/02 21:17:23;;;;;;;;;;;;;;;21.20;33.89;96749.28;10538957;28;1909;-66
2024/02/02 21:22:24;;;;;;;;;;;;;;;21.11;34.68;96750.78;10534926;28;1607;-65
2024/02/02 21:27:24;;;;;;;;;;;;;;;21.08;34.27;96746.03;10514000;28;2237;-65
2024/02/02 21:32:24;;;;;;;;;;;;;;;21.05;34.12;96748.13;10543114;28;1515;-65
2024/02/02 21:37:25;;;;;;;;;;;;;;;21.00;32.87;96734.84;10533076;28;2445;-65
2024/02/02 21:42:25;;;;;;;;;;;;;;;20.87;34.74;96729.22;10487395;28;2063;-64
2024/02/02 21:47:26;;;;;;;;;;;;;;;20.90;33.83;96718.97;10489568;28;1906;-66
2024/02/02 21:52:27;;;;;;;;;;;;;;;20.87;36.47;96723.94;10508905;28;2165;-68
2024/02/02 21:57:28;;;;;;;;;;;;;;;20.87;36.70;96706.31;10510214;28;2130;-72
2024/02/02 22:02:28;;;;;;;;;;;;;;;20.84;36.53;96698.88;10524705;27;2012;-64
2024/02/02 22:07:28;;;;;;;;;;;;;;;20.88;37.08;96692.06;10507717;28;1979;-64
2024/02/02 22:12:29;;;;;;;;;;;;;;;20.76;35.49;96690.66;10506211;28;2018;-64
2024/02/02 22:17:30;;;;;;;;;;;;;;;20.70;35.40;96684.56;10489867;28;2250;-64
2024/02/02 22:22:31;;;;;;;;;;;;;;;20.65;35.54;96668.69;10490796;28;2103;-63
2024/02/02 22:27:32;;;;;;;;;;;;;;;20.64;34.60;96680.28;10506296;28;2162;-65
2024/02/02 22:32:32;;;;;;;;;;;;;;;20.63;33.78;96688.47;10500632;28;2110;-64
2024/02/02 22:37:32;;;;;;;;;;;;;;;20.59;34.63;96689.97;10481334;28;2075;-64
2024/02/02 22:42:32;;;;;;;;;;;;;;;20.57;34.54;96692.88;10489469;28;2072;-65
2024/02/02 22:47:33;;;;;;;;;;;;;;;20.50;34.35;96687.03;10520586;28;2118;-64
2024/02/02 22:52:33;;;;;;;;;;;;;;;20.50;34.46;96696.75;10519515;28;2188;-65
2024/02/02 22:57:33;;;;;;;;;;;;;;;20.46;34.81;96712.28;10521364;28;2120;-64
2024/02/02 23:02:33;;;;;;;;;;;;;;;20.47;34.33;96727.03;10507348;28;2114;-64
2024/02/02 23:07:34;;;;;;;;;;;;;;;20.41;35.57;96727.22;10506176;28;2770;-65
2024/02/02 23:12:34;;;;;;;;;;;;;;;20.39;34.81;96727.47;10500879;28;2048;-66
2024/02/02 23:17:37;;;;;;;;;;;;;;;20.31;34.57;96724.50;10506528;28;2092;-65
2024/02/02 23:22:37;;;;;;;;;;;;;;;20.25;34.68;96737.63;10518511;28;1986;-63
2024/02/02 23:27:37;;;;;;;;;;;;;;;20.20;34.79;96728.84;10505685;28;2272;-65
2024/02/02 23:32:38;;;;;;;;;;;;;;;20.15;34.95;96710.34;10492486;28;2049;-65
2024/02/02 23:37:38;;;;;;;;;;;;;;;20.10;35.09;96707.66;10519762;27;2265;-65
2024/02/02 23:42:38;;;;;;;;;;;;;;;20.05;35.41;96694.47;10521102;27;2091;-65
2024/02/02 23:47:39;;;;;;;;;;;;;;;20.01;35.71;96690.72;10502616;28;2103;-65
2024/02/02 23:52:39;;;;;;;;;;;;;;;20.00;35.35;96686.50;10505182;28;2292;-65
2024/02/02 23:57:39;;;;;;;;;;;;;;;19.94;34.63;96698.81;10518790;28;2322;-65
